logo tempoitalia

Diretta Meteo Murcia-Alcantarilla, Spagnalunedì 31 agosto ore 07:00

Mappa
Sereno 16 °C Sereno 24 Ore: T.min 16 T.max 35
Ponente Nord Km/h 3.7 Punto di rugiada: 11 °C Umidità: 72% Visibilità: 10 Km
Il sole sorge alle: 07:34 Il sole tramonta alle: 20:36
31 Agosto 2026 07:00 tempo osservato: Sereno Sereno 16 72 1017 vento: Nord N 3.7
30 Agosto 2026 20:00 tempo osservato: Sereno Sereno 32 25 1015 vento: Nord SE 16.7
30 Agosto 2026 19:30 tempo osservato: Sereno Sereno 33 24 1015 vento: Nord SE 16.7
30 Agosto 2026 19:00 tempo osservato: Sereno Sereno 33 24 1015 vento: Nord SE 18.5
30 Agosto 2026 18:30 tempo osservato: Sereno Sereno 34 23 1015 vento: Nord SE 22.2
30 Agosto 2026 18:00 tempo osservato: Sereno Sereno 34 21 1015 vento: Nord E/SE 22.2
30 Agosto 2026 17:30 tempo osservato: Sereno Sereno 35 19 1015 vento: Nord SE 18.5
30 Agosto 2026 17:00 tempo osservato: Sereno Sereno 35 19 1015 vento: Nord SE 18.5
30 Agosto 2026 16:30 tempo osservato: Sereno Sereno 35 20 1015 vento: Nord SE 16.7
30 Agosto 2026 16:00 tempo osservato: Sereno Sereno 35 23 1016 vento: Nord SE 16.7
30 Agosto 2026 15:30 tempo osservato: Sereno Sereno 35 24 1016 vento: Nord SE 18.5
30 Agosto 2026 15:00 tempo osservato: Sereno Sereno 35 20 1016 vento: Nord SE 20.3
30 Agosto 2026 14:30 tempo osservato: Sereno Sereno 34 18 1017 vento: Nord SE 18.5
30 Agosto 2026 14:00 tempo osservato: Sereno Sereno 34 17 1017 vento: Nord SE 16.7
30 Agosto 2026 13:30 tempo osservato: Sereno Sereno 33 19 1017 vento: Nord N 11.1
30 Agosto 2026 13:00 tempo osservato: Sereno Sereno 31 35 1017 vento: Nord N 7.4
30 Agosto 2026 12:30 tempo osservato: Sereno Sereno 30 37 1018 vento: Nord N 3.7
30 Agosto 2026 12:00 tempo osservato: Sereno Sereno 29 39 1018 vento: Nord N 3.7
30 Agosto 2026 11:30 tempo osservato: Sereno Sereno 28 42 1018 vento: Nord N 5.5
30 Agosto 2026 11:00 tempo osservato: Sereno Sereno 26 50 1018 vento: Nord N 3.7
30 Agosto 2026 10:30 tempo osservato: Sereno Sereno 25 53 1018 vento: Nord N 3.7
30 Agosto 2026 10:00 tempo osservato: Sereno Sereno 25 50 1018 vento: Nord N 0
30 Agosto 2026 09:30 tempo osservato: Sereno Sereno 22 60 1018 vento: Nord N 0
30 Agosto 2026 09:00 tempo osservato: Sereno Sereno 20 72 1018 vento: Nord N 0
30 Agosto 2026 08:30 tempo osservato: Sereno Sereno 18 72 1018 vento: Nord N 3.7
30 Agosto 2026 08:00 tempo osservato: Sereno Sereno 16 82 1018 vento: Nord N 1.8